Bulletin
Investor Alert

Earnings Calendar

SEARCH
No results found.
Sorry, this date currently does not have any earnings announcements scheduled.
Sorry, this date currently does not have any earnings announcements scheduled.
Sorry, this date currently does not have any earnings announcements scheduled.
Sorry, this date currently does not have any earnings announcements scheduled.
Sorry, this date currently does not have any earnings announcements scheduled.
Sorry, this date currently does not have any earnings announcements scheduled.
Sorry, this date currently does not have any earnings announcements scheduled.
Sorry, this date currently does not have any earnings announcements scheduled.
Company Name Symbol Fiscal Quarter EPS Forecast EPS Actual Surprise
Jiayin Group Inc. ADR JFIN 3/31/2021 1.12 0.43 -0.69 (-61.57%)
G-III Apparel Group Ltd. GIII 4/30/2021 0.15 0.53 +0.38 (261.77%)
Impel NeuroPharma Inc. IMPL 3/31/2021 -0.82 -0.81 +0.01 (-1.22%)
REV Group Inc. REVG 4/30/2021 0.20 0.39 +0.19 (95.00%)
HealthEquity Inc. HQY 4/30/2021 0.32 0.38 +0.06 (17.48%)
Coupa Software Inc. COUP 4/30/2021 -0.18 0.07 +0.25 (-137.97%)
Stitch Fix Inc. Cl A SFIX 4/30/2021 -0.27 -0.18 +0.09 (-33.33%)
Vail Resorts Inc. MTN 4/30/2021 6.61 6.72 +0.11 (1.70%)
Marvell Technology Inc. MRVL 4/30/2021 0.27 0.29 +0.02 (7.01%)
Urstadt Biddle Properties Inc. UBP 4/30/2021 0.07 0.12 +0.05 (71.43%)
Urstadt Biddle Properties Inc. Cl A UBA 4/30/2021 0.07 0.12 +0.05 (71.43%)
Duckhorn Portfolio Inc. NAPA 4/30/2021 0.17 0.17 0.00 (-0.03%)
Dada Nexus Ltd. ADR DADA 3/31/2021 -2.57 -0.65 +1.92 (-74.73%)
Company Name Symbol Fiscal Quarter EPS Forecast EPS Actual Surprise
Thor Industries Inc. THO 4/30/2021 2.34 3.29 +0.95 (40.69%)
iHuman Inc. ADR IH 3/31/2021 0.16 N/A N/A
Momo Inc. ADR MOMO 3/31/2021 1.83 2.14 +0.31 (16.95%)
FTC Solar Inc. FTCI 3/31/2021 -0.10 -0.10 +0.00 (-2.44%)
Navistar International Corp. NAV 4/30/2021 0.54 0.72 +0.19 (34.92%)
Chico's Fas Inc. CHS 4/30/2021 -0.17 -0.08 +0.09 (-52.94%)
J.Jill Inc. JILL 4/30/2021 -1.35 -0.20 +1.15 (-85.19%)
Academy Sports & Outdoors Inc. ASO 4/30/2021 0.83 1.89 +1.06 (128.89%)
JOANN Inc. JOAN 4/30/2021 0.46 0.46 Met
Calavo Growers Inc. CVGW 4/30/2021 0.45 0.43 -0.02 (-3.37%)
Comtech Telecommunications Corp. CMTL 4/30/2021 -0.01 0.03 +0.04 (-463.37%)
Limoneira Co. LMNR 4/30/2021 0.06 0.10 +0.04 (66.67%)
American Software Inc. Cl A AMSWA 4/30/2021 0.06 0.11 +0.05 (85.81%)
UiPath Inc. PATH 4/30/2021 -0.05 0.02 +0.07 (-142.78%)
ABM Industries Inc. ABM 4/30/2021 0.71 0.82 +0.11 (14.95%)
Argan Inc. AGX 4/30/2021 0.35 0.67 +0.33 (94.20%)
Streamline Health Solutions Inc. STRM 4/30/2021 -0.05 -0.06 -0.01 (20.00%)
Casey's General Stores Inc. CASY 4/30/2021 0.88 1.12 +0.24 (27.20%)
BEST Inc. ADR BEST 3/31/2021 -0.87 -1.55 -0.68 (78.73%)
Company Name Symbol Fiscal Quarter EPS Forecast EPS Actual Surprise
GAIL (India) Ltd. GDR 144A GAILY 3/31/2021 0.34 0.34 +0.00 (0.58%)
Crown Crafts Inc. CRWS 3/31/2021 0.14 -0.01 -0.15 (-107.14%)
Sio Gene Therapies Inc. SIOX 3/31/2021 -0.22 -0.05 +0.17 (-76.92%)
Lovesac Co. LOVE 4/30/2021 -0.58 0.13 +0.71 (-122.41%)
United Natural Foods Inc. UNFI 4/30/2021 0.88 0.94 +0.06 (7.06%)
Campbell Soup Co. CPB 4/30/2021 0.66 0.57 -0.09 (-13.28%)
Daktronics Inc. DAKT 4/30/2021 0.01 0.01 Met
Brown-Forman Corp. Cl A BF.A 4/30/2021 0.33 0.25 -0.08 (-24.05%)
Brown-Forman Corp. Cl B BF.B 4/30/2021 0.33 0.25 -0.08 (-24.50%)
Vera Bradley Inc. VRA 4/30/2021 -0.20 -0.05 +0.15 (-74.49%)
Lakeland Industries Inc. LAKE 4/30/2021 0.54 0.57 +0.03 (6.54%)
Oxford Industries Inc. OXM 4/30/2021 1.06 1.89 +0.83 (79.14%)
Verint Systems Inc. VRNT 4/30/2021 0.35 0.44 +0.09 (24.38%)
GameStop Corp. Cl A GME 4/30/2021 -0.82 -0.45 +0.37 (-45.29%)
KLX Energy Services Holdings Inc. KLXE 4/30/2021 -2.32 -4.31 -1.99 (85.95%)
Greif Inc. Cl B GEF.B 4/30/2021 1.06 1.13 +0.07 (6.20%)
Greif Inc. Cl A GEF 4/30/2021 1.06 1.13 +0.07 (6.20%)
Yiren Digital Ltd. ADR YRD 3/31/2021 2.49 1.07 -1.42 (-57.01%)
RH RH 4/30/2021 4.03 4.89 +0.86 (21.47%)
Company Name Symbol Fiscal Quarter EPS Forecast EPS Actual Surprise
Sekisui House Ltd. ADR SKHSY 4/30/2021 0.40 0.48 +0.09 (21.55%)
Aurora Mobile Ltd. ADR JG 3/31/2021 -0.68 -0.51 +0.17 (-25.10%)
BlueCity Holdings Ltd. ADR BLCT 3/31/2021 -0.53 -1.31 -0.78 (147.17%)
Signet Jewelers Ltd. SIG 4/30/2021 1.27 2.23 +0.96 (75.68%)
Cloopen Group Holding Ltd. ADR RAAS 3/31/2021 -0.17 -12.76 -12.59 (7405.88%)
Werewolf Therapeutics Inc. HOWL 3/31/2021 -0.24 -83.36 -83.12 (34633.33%)
FuelCell Energy Inc. FCEL 4/30/2021 -0.05 -0.06 -0.01 (23.08%)
AstroNova Inc. ALOT 4/30/2021 0.04 0.08 +0.04 (100.00%)
John Wiley & Sons Inc. Cl B JW.B 4/30/2021 0.61 0.84 +0.24 (38.84%)
John Wiley & Sons Inc. Cl A JW.A 4/30/2021 0.61 0.84 +0.24 (38.84%)
Bowman Consulting Group Ltd. BWMN 3/31/2021 -0.01 0.17 +0.18 (-1800.00%)
Navigator Holdings Ltd. NVGS 3/31/2021 0.03 0.05 +0.02 (83.45%)
Kaspien Holdings Inc. KSPN 4/30/2021 -0.59 -0.61 -0.02 (3.39%)
Capstone Green Energy Corp. CGRN 3/31/2021 -0.26 -0.39 -0.13 (50.00%)
Zedge Inc. Cl B ZDGE 4/30/2021 0.05 0.13 +0.08 (160.00%)
Beyond Air Inc. XAIR 3/31/2021 -0.31 -0.24 +0.07 (-22.08%)
SeaChange International Inc. SEAC 4/30/2021 -0.10 -0.07 +0.03 (-26.32%)
Dave & Buster's Entertainment Inc. PLAY 4/30/2021 -0.16 0.40 +0.56 (-347.35%)
Chewy Inc. Cl A CHWY 4/30/2021 -0.04 0.09 +0.13 (-353.44%)
Mission Produce Inc. AVO 4/30/2021 0.11 0.12 +0.01 (5.08%)
Vince Holding Corp. VNCE 4/30/2021 -0.64 -0.98 -0.34 (53.13%)
Tyme Technologies Inc. TYME 3/31/2021 -0.06 N/A N/A
Company Name Symbol Fiscal Quarter EPS Forecast EPS Actual Surprise
Cheetah Mobile Inc. ADR CMCM 3/31/2021 0.77 0.54 -0.23 (-29.64%)
Virco Manufacturing Corp. VIRC 4/30/2021 -0.32 -0.25 +0.07 (-21.88%)
Vintage Wine Estates Inc. VWE 3/31/2021 0.06 -0.12 -0.17 (-309.09%)
Company Name Symbol Fiscal Quarter EPS Forecast EPS Actual Surprise
Helix BioPharma Corp. HBPCF 4/30/2021 -0.02 -0.02 0.00 (3.11%)
Coda Octopus Group Inc. CODA 4/30/2021 0.05 0.20 +0.15 (300.00%)
Motorcar Parts of America Inc. MPAA 3/31/2021 0.64 0.76 +0.12 (18.75%)
HEXO Corp. HEXO 4/30/2021 -0.05 -0.14 -0.09 (193.60%)
Concrete Pumping Holdings Inc. BBCP 4/30/2021 0.02 -0.21 -0.23 (-1100.33%)
Advaxis Inc. ADXS 4/30/2021 -0.05 -0.04 +0.01 (-20.00%)
MamaMancini's Holdings Inc. MMMB 4/30/2021 0.00 0.02 N/A
Vaccitech PLC ADR VACC 3/31/2021 -78.38 -1.90 +76.48 (-97.58%)
RF Industries Ltd. RFIL 4/30/2021 0.01 0.00 -0.01 (-100.00%)
Company Name Symbol Fiscal Quarter EPS Forecast EPS Actual Surprise
Renalytix AI PLC ADR RNLX 3/31/2021 -0.15 -0.24 -0.10 (65.52%)
Qudian Inc. ADR QD 3/31/2021 1.88 1.81 -0.07 (-3.72%)
4 Less Group Inc. FLES 4/30/2021 0.03 0.03 Met
StepStone Group Inc. STEP 3/31/2021 0.17 N/A N/A
Oracle Corp. ORCL 5/31/2021 1.31 1.54 +0.23 (17.75%)
Volt Information Sciences Inc. VOLT 4/30/2021 0.02 0.12 +0.10 (500.00%)
ClearSign Technologies Corp. CLIR 3/31/2021 -0.06 -0.07 -0.01 (16.67%)
La-Z-Boy Inc. LZB 4/30/2021 0.74 0.87 +0.13 (17.04%)
H&R Block Inc. HRB 4/30/2021 5.06 5.16 +0.10 (1.93%)
Azure Power Global Ltd. AZRE 3/31/2021 0.08 -0.79 -0.87 (-1119.35%)
Anterix Inc. ATEX 3/31/2021 -0.64 -0.62 +0.02 (-2.52%)
Company Name Symbol Fiscal Quarter EPS Forecast EPS Actual Surprise
Centogene N.V. CNTG 3/31/2021 0.05 -0.27 -0.32 (-591.71%)
BeyondSpring Inc. BYSI 3/31/2021 -0.54 -0.44 +0.10 (-18.52%)
Honest Co. Inc. HNST 3/31/2021 -0.06 -0.05 +0.01 (-15.63%)
Culp Inc. CULP 4/30/2021 0.08 0.11 +0.03 (37.50%)
Lennar Corp. Cl A LEN 5/31/2021 2.38 2.65 +0.27 (11.50%)
Lennar Corp. Cl B LEN.B 5/31/2021 2.38 2.65 +0.27 (11.50%)
Company Name Symbol Fiscal Quarter EPS Forecast EPS Actual Surprise
Adobe Inc. ADBE 5/31/2021 2.81 N/A N/A
Commercial Metals Co. CMC 5/31/2021 0.83 1.04 +0.21 (24.96%)
Jabil Inc. JBL 5/31/2021 1.04 1.30 +0.26 (25.12%)
Kroger Co. KR 4/30/2021 1.01 1.19 +0.18 (18.23%)
Dynagas LNG Partners LP DLNG 3/31/2021 0.19 N/A N/A
Smith & Wesson Brands Inc. SWBI 4/30/2021 1.08 N/A N/A
Company Name Symbol Fiscal Quarter EPS Forecast EPS Actual Surprise
Jerash Holdings (US) Inc. JRSH 3/31/2021 0.10 N/A N/A
Korn Ferry KFY 4/30/2021 0.98 N/A N/A
Company Name Symbol Fiscal Quarter EPS Forecast EPS Actual Surprise
Patterson Cos. Inc. PDCO 4/30/2021 0.51 N/A N/A
IHS Markit Ltd. INFO 5/31/2021 0.80 N/A N/A
Winnebago Industries Inc. WGO 5/31/2021 1.76 N/A N/A
KB Home KBH 5/31/2021 1.33 N/A N/A
H.B. Fuller Co. FUL 5/31/2021 0.92 N/A N/A
Steelcase Inc. SCS 5/31/2021 -0.30 N/A N/A
Concentrix Corp. CNXC 5/31/2021 2.26 N/A N/A
Company Name Symbol Fiscal Quarter EPS Forecast EPS Actual Surprise
FedEx Corp. FDX 5/31/2021 4.96 N/A N/A
BlackBerry Ltd. BB 5/31/2021 -0.06 N/A N/A
Accenture PLC Cl A ACN 5/31/2021 2.24 N/A N/A
Rite Aid Corp. RAD 5/31/2021 0.28 N/A N/A
GMS Inc. GMS 4/30/2021 0.81 N/A N/A
Methode Electronics Inc. MEI 4/30/2021 0.73 N/A N/A
Worthington Industries Inc. WOR 5/31/2021 1.68 N/A N/A
Darden Restaurants Inc. DRI 5/31/2021 1.76 N/A N/A
Progress Software Corp. PRGS 5/31/2021 0.72 N/A N/A
CalAmp Corp. CAMP 5/31/2021 0.05 N/A N/A
SYNNEX Corp. SNX 5/31/2021 1.93 N/A N/A
Nike Inc. Cl B NKE 5/31/2021 0.51 N/A N/A
Company Name Symbol Fiscal Quarter EPS Forecast EPS Actual Surprise
CarMax Inc. KMX 5/31/2021 1.63 N/A N/A
JinkoSolar Holding Co. Ltd. ADR JKS 3/31/2021 0.05 N/A N/A
Apogee Enterprises Inc. APOG 5/31/2021 0.53 N/A N/A
Paychex Inc. PAYX 5/31/2021 0.67 N/A N/A
Link to MarketWatch's Slice.